Time;durP1;ratioP1;P1;durP2;ratioP2;P2;SDS_P1;SDS_P2;PMS_P1;PMS_P2;Temp;Humidity;BMP_temperature;BMP_pressure;BME280_temperature;BME280_humidity;BME280_pressure;Samples;Min_cycle;Max_cycle;Signal;HPM_P1;HPM_P2
2021/04/08 00:02:04;;;;;;;17.60;2.87;;;;;;;0.84;89.74;100440.13;5097248;28;20202;-73
2021/04/08 00:04:30;;;;;;;14.53;2.23;;;;;;;0.81;89.99;100436.72;5097180;28;20343;-73
2021/04/08 00:06:55;;;;;;;12.53;2.67;;;;;;;0.70;91.42;100429.00;5096156;28;20635;-71
2021/04/08 00:09:21;;;;;;;14.63;2.30;;;;;;;0.96;87.89;100448.66;5098830;28;20189;-72
2021/04/08 00:11:46;;;;;;;17.77;2.83;;;;;;;0.96;87.01;100440.78;5096985;28;20205;-73
2021/04/08 00:14:12;;;;;;;15.60;2.40;;;;;;;0.99;86.41;100440.72;5097865;28;20181;-73
2021/04/08 00:16:38;;;;;;;13.13;2.77;;;;;;;0.94;87.20;100443.44;5096102;28;20178;-73
2021/04/08 00:19:07;;;;;;;12.87;2.10;;;;;;;0.96;86.97;100443.41;5095628;28;20201;-72
2021/04/08 00:21:33;;;;;;;10.27;2.30;;;;;;;1.00;85.82;100448.56;5095379;28;20223;-71
2021/04/08 00:23:58;;;;;;;13.13;3.00;;;;;;;1.07;84.71;100444.91;5095379;28;20179;-72
2021/04/08 00:26:23;;;;;;;15.40;2.57;;;;;;;1.19;83.55;100449.94;5094124;28;20174;-72
2021/04/08 00:28:49;;;;;;;15.60;2.40;;;;;;;1.14;84.17;100453.56;5093605;28;20247;-72
2021/04/08 00:31:14;;;;;;;13.13;2.10;;;;;;;1.21;83.05;100442.03;5094095;28;20689;-71
2021/04/08 00:33:39;;;;;;;16.57;2.30;;;;;;;1.18;83.79;100466.63;5094495;28;20178;-72
2021/04/08 00:36:05;;;;;;;16.70;2.63;;;;;;;1.19;83.32;100459.59;5094898;28;20178;-71
2021/04/08 00:38:30;;;;;;;23.07;2.30;;;;;;;1.25;82.90;100452.44;5094686;28;20213;-71
2021/04/08 00:40:56;;;;;;;12.20;2.00;;;;;;;1.28;82.59;100462.03;5094630;28;20182;-73
2021/04/08 00:43:22;;;;;;;14.37;2.43;;;;;;;1.20;82.41;100450.81;5093551;28;20179;-72
2021/04/08 00:45:47;;;;;;;13.07;2.93;;;;;;;1.08;83.96;100457.16;5096072;28;20180;-72
2021/04/08 00:48:12;;;;;;;10.17;2.20;;;;;;;1.08;83.83;100470.31;5094896;28;20524;-72
2021/04/08 00:50:38;;;;;;;16.77;2.80;;;;;;;1.13;83.56;100449.22;5095171;28;20244;-73
2021/04/08 00:53:07;;;;;;;9.17;2.20;;;;;;;1.16;83.01;100463.16;5094999;28;20224;-71
2021/04/08 00:55:39;;;;;;;13.33;2.17;;;;;;;1.16;83.51;100459.66;5097081;28;20340;-72
2021/04/08 00:58:05;;;;;;;11.87;2.13;;;;;;;1.16;83.30;100467.56;5098759;28;20206;-72
2021/04/08 01:00:34;;;;;;;8.80;1.63;;;;;;;1.05;83.96;100456.38;5098164;28;20228;-72
2021/04/08 01:03:00;;;;;;;18.87;2.83;;;;;;;0.91;85.07;100465.41;5097072;28;20262;-73
2021/04/08 01:05:26;;;;;;;16.70;2.87;;;;;;;1.00;84.02;100471.38;5098383;28;20178;-71
2021/04/08 01:07:51;;;;;;;12.83;2.07;;;;;;;1.01;84.24;100487.09;5097418;28;20183;-71
2021/04/08 01:10:17;;;;;;;15.00;2.90;;;;;;;1.06;83.60;100468.59;5098353;28;20566;-71
2021/04/08 01:12:42;;;;;;;8.43;2.10;;;;;;;1.10;83.20;100476.41;5098187;28;20248;-72
2021/04/08 01:15:09;;;;;;;16.67;2.17;;;;;;;1.14;83.30;100478.09;5098427;28;20580;-71
2021/04/08 01:17:46;;;;;;;13.17;2.20;;;;;;;1.07;84.10;100483.47;5097485;28;20197;-75
2021/04/08 01:20:33;;;;;;;17.27;2.77;;;;;;;1.04;83.96;100480.91;5097311;28;20203;-71
2021/04/08 01:23:02;;;;;;;17.60;3.43;;;;;;;1.14;83.55;100475.47;5097633;28;20213;-71
2021/04/08 01:25:39;;;;;;;11.50;2.07;;;;;;;1.13;83.67;100492.13;5098019;28;20190;-71
2021/04/08 01:28:10;;;;;;;11.70;2.30;;;;;;;1.10;83.89;100496.56;5098049;28;20181;-72
2021/04/08 01:30:47;;;;;;;10.50;2.67;;;;;;;1.08;84.19;100479.94;5098385;28;20225;-72
2021/04/08 01:33:24;;;;;;;15.03;2.27;;;;;;;1.15;83.35;100494.75;5097611;28;20209;-70
2021/04/08 01:35:50;;;;;;;13.03;2.50;;;;;;;1.11;83.48;100490.41;5096518;28;20158;-71
2021/04/08 01:38:22;;;;;;;12.13;2.60;;;;;;;1.15;83.36;100503.50;5097568;28;20185;-71
2021/04/08 01:40:48;;;;;;;20.10;3.33;;;;;;;1.19;82.90;100506.91;5097947;28;20600;-72
2021/04/08 01:43:15;;;;;;;10.83;2.37;;;;;;;1.12;83.55;100498.28;5097753;28;20182;-73
2021/04/08 01:45:41;;;;;;;11.87;2.43;;;;;;;1.19;83.14;100486.75;5098194;28;20174;-73
2021/04/08 01:48:07;;;;;;;12.07;2.50;;;;;;;1.16;83.45;100499.97;5097687;28;20258;-72
2021/04/08 01:50:33;;;;;;;11.50;2.43;;;;;;;1.17;84.14;100511.34;5097344;28;20190;-72
2021/04/08 01:53:00;;;;;;;13.80;2.67;;;;;;;1.14;84.22;100514.03;5096816;28;20198;-72
2021/04/08 01:55:27;;;;;;;19.27;2.57;;;;;;;1.14;83.72;100525.41;5095006;28;20639;-72
2021/04/08 01:57:54;;;;;;;13.83;2.70;;;;;;;1.06;84.92;100516.78;5095627;28;20174;-70
2021/04/08 02:00:20;;;;;;;15.90;3.33;;;;;;;1.05;84.87;100530.81;5095493;28;20202;-71
2021/04/08 02:02:47;;;;;;;14.37;2.97;;;;;;;1.07;84.93;100541.31;5096493;28;20174;-72
2021/04/08 02:05:14;;;;;;;15.87;3.17;;;;;;;1.03;85.74;100524.72;5096182;28;20580;-71
2021/04/08 02:07:40;;;;;;;14.83;2.07;;;;;;;0.97;86.33;100514.34;5095152;28;20189;-71
2021/04/08 02:10:10;;;;;;;12.50;2.70;;;;;;;0.93;87.18;100520.53;5094974;28;20190;-71
2021/04/08 02:12:37;;;;;;;10.77;2.47;;;;;;;0.76;88.79;100530.50;5096480;28;20210;-71
2021/04/08 02:15:05;;;;;;;14.10;2.33;;;;;;;0.60;90.12;100543.03;5095417;28;20194;-70
2021/04/08 02:17:32;;;;;;;8.57;2.13;;;;;;;0.52;91.14;100548.41;5095440;28;20194;-70
2021/04/08 02:19:57;;;;;;;17.63;2.30;;;;;;;0.43;92.11;100542.44;5096122;28;20543;-71
2021/04/08 02:22:23;;;;;;;21.37;2.77;;;;;;;0.43;92.55;100526.69;5095477;28;20261;-71
2021/04/08 02:24:48;;;;;;;13.73;2.60;;;;;;;0.53;90.90;100529.13;5095243;28;20189;-71
2021/04/08 02:27:15;;;;;;;15.33;2.97;;;;;;;0.43;92.82;100561.69;5078355;28;20618;-72
2021/04/08 02:29:40;;;;;;;18.20;3.00;;;;;;;0.48;92.00;100537.97;5079212;28;20206;-72
2021/04/08 02:32:06;;;;;;;14.33;3.50;;;;;;;0.49;91.96;100553.72;5080276;28;20281;-70
2021/04/08 02:34:31;;;;;;;15.60;3.37;;;;;;;0.49;92.43;100550.22;5099428;28;20192;-71
2021/04/08 02:36:57;;;;;;;13.07;2.43;;;;;;;0.45;92.46;100552.03;5099085;28;20174;-71
2021/04/08 02:39:22;;;;;;;13.67;2.30;;;;;;;0.44;93.01;100545.03;5095768;28;20194;-72
2021/04/08 02:41:47;;;;;;;12.10;2.50;;;;;;;0.39;93.54;100546.03;5097778;28;20569;-72
2021/04/08 02:44:14;;;;;;;17.00;2.73;;;;;;;0.49;92.98;100544.97;5096768;28;20190;-72
2021/04/08 02:46:39;;;;;;;24.70;3.40;;;;;;;0.46;93.56;100558.16;5095342;28;20181;-71
2021/04/08 02:49:05;;;;;;;14.20;2.87;;;;;;;0.52;93.16;100551.03;5095099;28;20190;-73
2021/04/08 02:51:55;;;;;;;16.03;2.97;;;;;;;0.57;92.64;100553.59;5095698;28;20202;-73
2021/04/08 02:54:30;;;;;;;18.50;2.43;;;;;;;0.60;92.47;100540.41;5101465;28;20227;-73
2021/04/08 02:56:58;;;;;;;19.40;2.80;;;;;;;0.53;93.57;100547.50;5102359;28;20520;-73
2021/04/08 02:59:25;;;;;;;19.93;3.13;;;;;;;0.62;92.66;100557.84;5085939;28;20190;-73
2021/04/08 03:01:55;;;;;;;19.80;3.03;;;;;;;0.54;92.89;100564.13;5103528;28;20170;-73
2021/04/08 03:04:21;;;;;;;19.07;3.20;;;;;;;0.46;92.83;100577.41;5102583;28;20270;-72
2021/04/08 03:06:49;;;;;;;17.67;3.13;;;;;;;0.40;93.35;100566.13;5101785;28;20238;-73
2021/04/08 03:09:14;;;;;;;17.93;3.43;;;;;;;0.39;92.83;100540.75;5099677;28;20197;-72
2021/04/08 03:11:40;;;;;;;23.80;3.20;;;;;;;0.41;92.85;100575.75;5096994;28;20288;-71
2021/04/08 03:14:07;;;;;;;20.67;3.17;;;;;;;0.38;92.65;100586.28;5079894;28;20174;-73
2021/04/08 03:16:40;;;;;;;27.87;3.40;;;;;;;0.31;92.96;100585.50;5097001;28;20204;-72
2021/04/08 03:19:07;;;;;;;16.30;2.90;;;;;;;0.31;92.98;100586.34;5096458;28;20197;-71
2021/04/08 03:21:33;;;;;;;20.93;3.30;;;;;;;0.39;92.23;100590.66;5095944;28;20158;-72
2021/04/08 03:24:00;;;;;;;22.60;3.40;;;;;;;0.37;92.69;100593.28;5094892;28;20170;-71
2021/04/08 03:26:26;;;;;;;17.23;3.73;;;;;;;0.42;92.38;100595.84;5096293;28;20210;-71
2021/04/08 03:28:52;;;;;;;22.63;3.07;;;;;;;0.56;89.97;100607.00;5095842;28;20197;-72
2021/04/08 03:31:21;;;;;;;18.30;3.20;;;;;;;0.60;89.96;100608.69;5095782;28;20219;-71
2021/04/08 03:33:48;;;;;;;28.63;3.57;;;;;;;0.60;89.85;100606.94;5094494;28;20171;-71
2021/04/08 03:36:14;;;;;;;22.07;3.43;;;;;;;0.59;91.48;100614.81;5094116;28;20289;-71
2021/04/08 03:38:40;;;;;;;19.27;3.37;;;;;;;0.55;91.44;100635.03;5076921;28;20658;-72
2021/04/08 03:41:06;;;;;;;23.40;3.37;;;;;;;0.44;92.93;100622.94;5097777;28;20174;-72
2021/04/08 03:43:31;;;;;;;19.23;3.57;;;;;;;0.42;93.16;100606.34;5098354;28;20626;-71
2021/04/08 03:46:02;;;;;;;22.37;3.77;;;;;;;0.37;93.61;100639.66;5095986;28;20174;-71
2021/04/08 03:48:27;;;;;;;18.40;2.97;;;;;;;0.43;93.61;100631.72;5093622;28;20158;-71
2021/04/08 03:50:54;;;;;;;23.23;3.60;;;;;;;0.40;94.25;100623.91;5094641;28;20217;-70
2021/04/08 03:53:20;;;;;;;20.97;3.67;;;;;;;0.33;94.21;100633.59;5093353;28;20175;-70
2021/04/08 03:55:46;;;;;;;24.10;3.90;;;;;;;0.34;94.53;100621.31;5076946;28;20163;-71
2021/04/08 03:58:12;;;;;;;17.07;3.33;;;;;;;0.39;94.96;100619.53;5095539;28;20258;-71
2021/04/08 04:00:38;;;;;;;23.40;4.03;;;;;;;0.34;95.06;100637.94;5093076;28;20218;-72
2021/04/08 04:03:04;;;;;;;20.23;3.40;;;;;;;0.29;95.37;100643.28;5093299;28;20541;-71
2021/04/08 04:05:29;;;;;;;21.00;3.33;;;;;;;0.32;95.98;100630.09;5059920;28;20333;-72
2021/04/08 04:07:55;;;;;;;21.73;3.73;;;;;;;0.32;96.08;100631.84;5094417;28;20170;-71
2021/04/08 04:10:22;;;;;;;19.20;3.57;;;;;;;0.37;96.13;100644.91;5095417;28;20190;-72
2021/04/08 04:12:51;;;;;;;20.70;3.87;;;;;;;0.35;95.70;100644.94;5096086;28;20254;-72
2021/04/08 04:15:17;;;;;;;20.83;3.37;;;;;;;0.38;95.96;100658.06;5095455;28;20167;-72
2021/04/08 04:17:42;;;;;;;18.47;3.93;;;;;;;0.41;96.21;100665.88;5096682;28;20178;-70
2021/04/08 04:20:09;;;;;;;24.23;3.10;;;;;;;0.40;95.94;100660.66;5100512;28;20198;-72
2021/04/08 04:22:35;;;;;;;15.10;3.07;;;;;;;0.34;96.28;100664.19;5099524;28;20174;-71
2021/04/08 04:25:00;;;;;;;22.97;3.13;;;;;;;0.34;96.66;100658.94;5097276;28;20579;-72
2021/04/08 04:27:26;;;;;;;32.90;4.10;;;;;;;0.41;96.71;100672.88;5094959;28;20221;-71
2021/04/08 04:29:51;;;;;;;16.80;4.50;;;;;;;0.35;96.65;100660.69;5095185;28;20674;-71
2021/04/08 04:32:17;;;;;;;17.00;3.40;;;;;;;0.43;96.64;100671.09;5100481;28;20248;-71
2021/04/08 04:34:42;;;;;;;20.13;3.93;;;;;;;0.44;96.32;100663.22;5098829;28;20585;-72
2021/04/08 04:37:09;;;;;;;20.10;3.03;;;;;;;0.45;96.52;100669.31;5098949;28;20181;-72
2021/04/08 04:39:35;;;;;;;19.37;3.53;;;;;;;0.50;96.24;100675.38;5099075;28;20554;-71
2021/04/08 04:42:01;;;;;;;17.43;3.40;;;;;;;0.49;96.16;100689.41;5098634;28;20193;-71
2021/04/08 04:44:27;;;;;;;28.80;3.43;;;;;;;0.50;95.89;100704.25;5097727;28;20174;-71
2021/04/08 04:46:52;;;;;;;26.53;3.63;;;;;;;0.54;96.12;100670.06;5098789;28;20186;-71
2021/04/08 04:49:17;;;;;;;29.60;3.77;;;;;;;0.54;95.93;100677.06;5098108;28;20693;-72
2021/04/08 04:51:43;;;;;;;25.10;3.47;;;;;;;0.57;96.11;100703.28;5097826;28;20259;-72
2021/04/08 04:54:08;;;;;;;26.93;3.53;;;;;;;0.60;95.60;100684.84;5098360;28;20542;-71
2021/04/08 04:56:33;;;;;;;19.30;3.73;;;;;;;0.61;95.58;100691.84;5098749;28;20177;-73
2021/04/08 04:58:59;;;;;;;26.00;4.03;;;;;;;0.59;95.25;100704.13;5097227;28;20193;-72
2021/04/08 05:01:24;;;;;;;27.17;4.17;;;;;;;0.61;95.89;100715.47;5098412;28;20170;-71
2021/04/08 05:03:49;;;;;;;25.93;3.40;;;;;;;0.62;95.93;100711.97;5096991;28;20251;-72
2021/04/08 05:06:14;;;;;;;24.90;3.30;;;;;;;0.62;95.50;100715.47;5098371;28;20657;-72
2021/04/08 05:08:40;;;;;;;19.37;3.17;;;;;;;0.65;95.62;100719.81;5096615;28;20174;-72
2021/04/08 05:11:06;;;;;;;20.70;3.60;;;;;;;0.67;95.41;100710.13;5096557;28;20182;-72
2021/04/08 05:13:31;;;;;;;26.73;4.73;;;;;;;0.63;95.31;100732.09;5098761;28;20182;-71
2021/04/08 05:15:56;;;;;;;32.47;3.97;;;;;;;0.60;95.02;100732.13;5098461;28;20229;-71
2021/04/08 05:18:22;;;;;;;19.00;3.87;;;;;;;0.64;95.78;100739.06;5098802;28;20571;-72
2021/04/08 05:20:47;;;;;;;27.20;3.60;;;;;;;0.61;95.65;100734.72;5098228;28;20215;-71
2021/04/08 05:23:14;;;;;;;22.77;4.20;;;;;;;0.61;96.06;100754.88;5096758;28;20162;-70
2021/04/08 05:25:39;;;;;;;19.00;3.00;;;;;;;0.59;95.77;100746.16;5097149;28;20215;-72
2021/04/08 05:28:05;;;;;;;27.73;3.83;;;;;;;0.62;96.56;100720.72;5097018;28;20277;-71
2021/04/08 05:30:30;;;;;;;28.53;4.33;;;;;;;0.64;96.51;100754.84;5098101;28;20223;-71
2021/04/08 05:32:55;;;;;;;21.30;3.43;;;;;;;0.67;95.99;100757.41;5097170;28;20677;-72
2021/04/08 05:35:20;;;;;;;18.83;3.83;;;;;;;0.69;95.87;100774.03;5097071;28;20175;-72
2021/04/08 05:37:46;;;;;;;22.83;3.63;;;;;;;0.67;95.89;100762.69;5096617;28;20181;-71
2021/04/08 05:40:11;;;;;;;27.20;3.63;;;;;;;0.72;95.79;100781.88;5096777;28;20198;-72
2021/04/08 05:42:37;;;;;;;16.20;3.00;;;;;;;0.71;95.14;100781.88;5096949;28;20663;-71
2021/04/08 05:45:02;;;;;;;19.47;3.23;;;;;;;0.68;95.86;100792.44;5096386;28;20171;-72
2021/04/08 05:47:27;;;;;;;21.90;3.53;;;;;;;0.63;95.81;100780.22;5096439;28;20193;-71
2021/04/08 05:49:53;;;;;;;18.00;4.23;;;;;;;0.64;96.09;100796.88;5096473;28;20213;-72
2021/04/08 05:52:18;;;;;;;26.43;4.00;;;;;;;0.66;96.36;100808.22;5096061;28;20535;-71
2021/04/08 05:54:43;;;;;;;29.03;3.80;;;;;;;0.70;95.67;100841.44;5096787;28;20174;-71
2021/04/08 05:57:09;;;;;;;19.23;3.27;;;;;;;0.70;96.21;100820.41;5096210;28;20254;-70
2021/04/08 05:59:34;;;;;;;29.23;4.80;;;;;;;0.75;96.50;100821.25;5096211;28;20283;-72
2021/04/08 06:01:59;;;;;;;21.77;4.07;;;;;;;0.74;96.31;100834.38;5096569;28;20174;-71
2021/04/08 06:04:25;;;;;;;38.17;5.20;;;;;;;0.60;96.26;100837.19;5096769;28;20181;-71
2021/04/08 06:06:50;;;;;;;20.60;4.43;;;;;;;0.47;97.06;100836.47;5096565;28;20175;-69
2021/04/08 06:09:15;;;;;;;18.03;3.20;;;;;;;0.41;96.99;100833.94;5100598;28;20664;-70
2021/04/08 06:11:41;;;;;;;23.00;3.47;;;;;;;0.37;96.96;100844.47;5096362;28;20243;-71
2021/04/08 06:14:06;;;;;;;27.23;4.00;;;;;;;0.34;97.45;100840.13;5095991;28;20261;-71
2021/04/08 06:16:31;;;;;;;20.60;3.17;;;;;;;0.38;97.89;100869.84;5095900;28;20265;-70
2021/04/08 06:18:57;;;;;;;27.43;4.13;;;;;;;0.45;97.86;100845.28;5094845;28;20284;-70
2021/04/08 06:21:22;;;;;;;23.37;3.77;;;;;;;0.46;97.80;100875.88;5096096;28;20178;-69
2021/04/08 06:23:47;;;;;;;28.40;3.77;;;;;;;0.50;98.03;100867.09;5094492;28;20174;-70
2021/04/08 06:26:13;;;;;;;36.67;4.53;;;;;;;0.61;97.66;100876.56;5094799;28;20182;-71
2021/04/08 06:28:38;;;;;;;19.03;3.63;;;;;;;0.72;97.09;100883.44;5095838;28;20195;-73
2021/04/08 06:31:03;;;;;;;20.47;3.23;;;;;;;0.76;97.08;100866.78;5095962;28;20682;-71
2021/04/08 06:33:28;;;;;;;21.27;3.37;;;;;;;0.92;96.72;100900.72;5098328;28;20171;-70
2021/04/08 06:35:54;;;;;;;25.20;3.90;;;;;;;0.94;96.35;100874.44;5097057;28;20227;-69
2021/04/08 06:38:19;;;;;;;26.80;3.70;;;;;;;1.01;96.45;100885.72;5095759;28;20269;-70
2021/04/08 06:40:44;;;;;;;30.23;4.70;;;;;;;1.07;96.60;100906.66;5094520;28;20201;-71
2021/04/08 06:43:11;;;;;;;26.63;4.40;;;;;;;1.13;96.04;100870.69;5094055;28;20178;-71
2021/04/08 06:45:39;;;;;;;23.37;3.80;;;;;;;1.09;95.56;100897.00;5094549;28;20171;-70
2021/04/08 06:48:18;;;;;;;32.13;4.50;;;;;;;1.12;95.15;100884.72;5094155;28;20178;-70
2021/04/08 06:50:44;;;;;;;25.83;3.33;;;;;;;1.15;95.40;100916.22;5093938;28;20224;-72
2021/04/08 06:53:09;;;;;;;18.87;2.87;;;;;;;1.13;95.63;100904.88;5093646;28;20199;-72
2021/04/08 06:55:35;;;;;;;17.00;3.40;;;;;;;1.15;94.64;100931.13;5094277;28;20176;-72
2021/04/08 06:58:03;;;;;;;19.80;3.47;;;;;;;1.09;94.19;100939.94;5093621;28;20658;-72
2021/04/08 07:00:29;;;;;;;17.87;3.70;;;;;;;1.08;93.75;100955.72;5095156;28;20243;-72
2021/04/08 07:02:54;;;;;;;15.93;2.77;;;;;;;1.03;94.37;100949.66;5094951;28;20172;-72
2021/04/08 07:05:19;;;;;;;16.43;2.97;;;;;;;1.18;95.16;100928.47;5095137;28;20183;-71
2021/04/08 07:07:44;;;;;;;19.03;3.47;;;;;;;1.23;95.06;100945.03;5094953;28;20201;-71
2021/04/08 07:10:10;;;;;;;17.93;3.73;;;;;;;1.32;94.67;100960.69;5094884;28;20198;-70
2021/04/08 07:12:35;;;;;;;20.30;3.33;;;;;;;1.34;95.22;100963.31;5094867;28;20210;-70
2021/04/08 07:15:01;;;;;;;16.93;3.60;;;;;;;1.41;94.93;100968.44;5093656;28;20212;-71
2021/04/08 07:17:27;;;;;;;14.60;3.20;;;;;;;1.41;94.14;100970.22;5094726;28;20209;-71
2021/04/08 07:19:55;;;;;;;27.90;4.73;;;;;;;1.39;94.21;100983.38;5093879;28;20201;-72
2021/04/08 07:22:20;;;;;;;22.77;3.20;;;;;;;1.50;93.61;100978.88;5093774;28;20182;-71
2021/04/08 07:24:47;;;;;;;23.50;3.93;;;;;;;1.42;93.13;100988.59;5094515;28;20638;-72
2021/04/08 07:27:19;;;;;;;22.13;3.40;;;;;;;1.42;93.16;100993.88;5093710;28;20185;-72
2021/04/08 07:29:52;;;;;;;19.90;3.30;;;;;;;1.52;92.98;100995.50;5093115;28;20701;-72
2021/04/08 07:32:22;;;;;;;21.80;3.20;;;;;;;1.53;93.60;100986.72;5092897;28;20194;-72
2021/04/08 07:34:58;;;;;;;19.17;2.67;;;;;;;1.48;92.63;101000.81;5094129;28;20651;-71
2021/04/08 07:37:29;;;;;;;17.30;3.17;;;;;;;1.51;92.44;101014.81;5092631;28;20617;-71
2021/04/08 07:39:55;;;;;;;15.47;2.90;;;;;;;1.60;93.23;101002.41;5092943;28;20255;-72
2021/04/08 07:42:25;;;;;;;18.80;3.60;;;;;;;1.68;92.99;100990.03;5093638;28;20180;-72
2021/04/08 07:44:56;;;;;;;20.23;3.17;;;;;;;1.37;91.67;101048.28;5093200;28;20170;-72
2021/04/08 07:47:27;;;;;;;17.83;3.10;;;;;;;1.38;91.54;101018.47;5093500;28;20277;-72
2021/04/08 07:49:56;;;;;;;21.93;3.37;;;;;;;1.52;92.77;101023.56;5094354;28;20192;-71
2021/04/08 07:52:27;;;;;;;32.30;4.07;;;;;;;1.67;93.48;101025.13;5093030;28;20205;-71
2021/04/08 07:55:13;;;;;;;28.37;3.37;;;;;;;1.88;92.39;101024.84;5094004;28;20168;-72
2021/04/08 07:57:59;;;;;;;19.47;4.03;;;;;;;1.84;92.16;101042.41;5093548;28;20191;-72
2021/04/08 08:00:29;;;;;;;17.93;2.70;;;;;;;1.83;92.03;101027.50;5093643;28;20244;-72
2021/04/08 08:02:57;;;;;;;21.67;3.37;;;;;;;1.92;92.78;101047.59;5094215;28;20167;-71
2021/04/08 08:05:35;;;;;;;19.57;3.13;;;;;;;2.04;91.90;101062.34;5094854;28;20176;-72
2021/04/08 08:08:14;;;;;;;10.87;2.47;;;;;;;1.97;90.75;101066.81;5092680;28;20620;-72
2021/04/08 08:11:00;;;;;;;15.50;3.23;;;;;;;1.84;90.38;101073.13;5092948;28;20602;-72
2021/04/08 08:13:31;;;;;;;19.57;3.33;;;;;;;1.95;89.97;101050.19;5093719;28;20617;-72
2021/04/08 08:15:57;;;;;;;14.90;2.63;;;;;;;1.86;89.84;101081.91;5092737;28;20692;-72
2021/04/08 08:18:31;;;;;;;13.87;2.43;;;;;;;2.10;89.00;101081.53;5092701;28;20538;-72
2021/04/08 08:21:12;;;;;;;15.73;2.57;;;;;;;2.25;88.34;101063.78;5093921;28;20198;-71
2021/04/08 08:23:44;;;;;;;19.40;2.63;;;;;;;2.48;87.43;101080.09;5093461;28;20165;-72
2021/04/08 08:26:26;;;;;;;15.47;2.80;;;;;;;2.73;86.98;101094.63;5093677;28;20164;-72
2021/04/08 08:28:53;;;;;;;16.20;2.80;;;;;;;2.49;84.05;101069.53;5093775;28;20220;-72
2021/04/08 08:31:39;;;;;;;17.73;2.97;;;;;;;2.72;80.78;101092.00;5092122;28;20653;-72
2021/04/08 08:34:08;;;;;;;20.67;3.10;;;;;;;2.92;76.42;101099.56;5092776;28;20170;-73
2021/04/08 08:36:34;;;;;;;16.77;2.77;;;;;;;3.04;78.54;101100.25;5094012;28;20184;-71
2021/04/08 08:39:01;;;;;;;11.03;2.57;;;;;;;3.36;75.95;101098.78;5092900;28;20566;-71
2021/04/08 08:41:27;;;;;;;17.87;3.40;;;;;;;3.30;76.58;101110.31;5093728;28;20165;-71
2021/04/08 08:43:54;;;;;;;15.33;3.20;;;;;;;3.55;73.71;101100.16;5092564;28;20271;-71
2021/04/08 08:46:19;;;;;;;8.67;2.10;;;;;;;3.65;72.22;101107.00;5093320;28;20751;-71
2021/04/08 08:48:45;;;;;;;12.27;1.97;;;;;;;3.32;72.44;101105.00;5093297;28;20177;-72
2021/04/08 08:51:10;;;;;;;10.37;2.13;;;;;;;3.81;69.32;101102.28;5093725;28;20264;-71
2021/04/08 08:53:36;;;;;;;10.93;2.07;;;;;;;3.53;68.77;101112.53;5095730;28;20189;-71
2021/04/08 08:56:02;;;;;;;12.40;2.20;;;;;;;4.05;69.02;101136.06;5093113;28;20178;-71
2021/04/08 08:58:27;;;;;;;6.53;1.53;;;;;;;3.82;66.39;101142.75;5094092;28;20213;-72
2021/04/08 09:00:56;;;;;;;14.63;2.33;;;;;;;3.91;67.10;101130.22;5092580;28;20665;-72
2021/04/08 09:03:22;;;;;;;12.10;2.53;;;;;;;3.99;67.32;101108.94;5092331;28;20244;-71
2021/04/08 09:05:47;;;;;;;14.53;2.63;;;;;;;4.48;64.63;101121.94;5092870;28;20189;-73
2021/04/08 09:08:14;;;;;;;11.07;2.50;;;;;;;4.59;63.03;101138.41;5076994;28;20269;-72
2021/04/08 09:10:41;;;;;;;10.53;2.13;;;;;;;4.61;62.42;101122.50;5093018;28;20198;-73
2021/04/08 09:13:07;;;;;;;7.07;1.70;;;;;;;5.01;61.55;101127.69;5092474;28;20208;-71
2021/04/08 09:15:33;;;;;;;12.63;2.63;;;;;;;5.05;62.34;101139.06;5093663;28;20190;-72
2021/04/08 09:18:00;;;;;;;6.83;1.80;;;;;;;5.09;59.71;101146.00;5096411;28;20187;-71
2021/04/08 09:20:26;;;;;;;10.00;1.97;;;;;;;5.16;58.80;101143.16;5098100;28;20251;-72
2021/04/08 09:23:07;;;;;;;13.37;2.33;;;;;;;4.95;59.63;101156.94;5097529;28;20178;-72
2021/04/08 09:25:37;;;;;;;11.17;2.53;;;;;;;4.55;60.51;101160.53;5096228;28;20252;-72
2021/04/08 09:28:05;;;;;;;13.00;2.37;;;;;;;4.92;59.33;101144.66;5098360;28;20193;-71
2021/04/08 09:30:41;;;;;;;5.60;1.60;;;;;;;5.09;57.62;101156.59;5097615;28;20259;-72
2021/04/08 09:33:07;;;;;;;8.37;1.83;;;;;;;5.01;58.25;101159.44;5097894;28;20192;-73
2021/04/08 09:35:32;;;;;;;14.57;2.33;;;;;;;5.26;56.70;101157.91;5098366;28;20243;-72
2021/04/08 09:37:58;;;;;;;12.23;1.63;;;;;;;5.11;55.82;101168.88;5097148;28;20178;-73
2021/04/08 09:40:23;;;;;;;9.50;1.90;;;;;;;4.93;55.48;101172.84;5097675;28;20561;-72
2021/04/08 09:42:50;;;;;;;12.97;1.77;;;;;;;5.22;55.93;101182.72;5097624;28;20174;-72
2021/04/08 09:45:16;;;;;;;6.17;1.20;;;;;;;5.28;52.84;101145.50;5095397;28;20316;-72
2021/04/08 09:47:41;;;;;;;12.90;1.60;;;;;;;5.10;53.30;101158.31;5097212;28;20694;-73
2021/04/08 09:50:07;;;;;;;3.60;1.07;;;;;;;5.53;52.61;101171.31;5098775;28;20201;-72
2021/04/08 09:52:55;;;;;;;8.17;1.70;;;;;;;5.93;52.50;101145.50;5099331;28;20550;-72
2021/04/08 09:55:33;;;;;;;8.37;1.90;;;;;;;5.83;51.67;101204.91;5099134;28;20167;-73
2021/04/08 09:58:03;;;;;;;6.77;1.20;;;;;;;5.19;51.74;101171.31;5099864;28;20174;-72
2021/04/08 10:00:29;;;;;;;7.20;1.30;;;;;;;5.52;52.21;101185.47;5098404;28;20197;-73
2021/04/08 10:03:02;;;;;;;5.47;1.50;;;;;;;5.90;51.36;101180.03;5099837;28;20166;-72
2021/04/08 10:05:32;;;;;;;9.50;2.30;;;;;;;6.07;49.56;101200.75;5100127;28;20174;-72
2021/04/08 10:07:59;;;;;;;7.23;1.60;;;;;;;6.35;49.36;101166.38;5098693;28;20183;-72
2021/04/08 10:10:36;;;;;;;9.40;2.13;;;;;;;5.62;48.79;101181.69;5097835;28;20213;-71
2021/04/08 10:13:22;;;;;;;9.83;2.30;;;;;;;5.85;48.63;101192.50;5097287;28;20202;-71
2021/04/08 10:15:48;;;;;;;8.33;1.67;;;;;;;5.70;49.81;101195.56;5095746;28;20272;-71
2021/04/08 10:18:17;;;;;;;7.33;1.80;;;;;;;6.02;49.96;101196.50;5096170;28;20631;-70
2021/04/08 10:20:45;;;;;;;8.50;1.73;;;;;;;6.35;50.87;101187.59;5096304;28;20194;-72
2021/04/08 10:23:11;;;;;;;7.40;1.77;;;;;;;5.41;53.56;101192.81;5096005;28;20177;-72
2021/04/08 10:25:38;;;;;;;7.13;1.83;;;;;;;6.26;52.25;101198.44;5094871;28;20613;-70
2021/04/08 10:28:04;;;;;;;3.30;1.13;;;;;;;5.69;52.56;101180.59;5094960;28;20186;-71
2021/04/08 10:30:38;;;;;;;9.70;1.73;;;;;;;5.76;50.00;101206.00;5094441;28;20194;-71
2021/04/08 10:33:17;;;;;;;6.80;1.47;;;;;;;6.35;49.95;101208.78;5095533;28;20232;-71
2021/04/08 10:35:42;;;;;;;7.83;1.93;;;;;;;6.19;49.75;101218.94;5095563;28;20182;-72
2021/04/08 10:38:08;;;;;;;4.07;1.40;;;;;;;5.91;48.68;101196.78;5096152;28;20216;-70
2021/04/08 10:40:34;;;;;;;5.43;1.20;;;;;;;5.62;48.04;101197.56;5094848;28;20587;-71
2021/04/08 10:43:10;;;;;;;6.87;1.40;;;;;;;5.72;47.66;101207.00;5096211;28;20202;-72
2021/04/08 10:45:36;;;;;;;3.70;1.00;;;;;;;6.53;45.11;101213.53;5095612;28;20627;-70
2021/04/08 10:48:02;;;;;;;5.07;1.27;;;;;;;6.70;44.87;101194.47;5095818;28;20181;-71
2021/04/08 10:50:27;;;;;;;5.60;1.33;;;;;;;6.64;43.90;101194.63;5096013;28;20201;-72
2021/04/08 10:52:53;;;;;;;4.93;1.30;;;;;;;6.32;44.46;101215.94;5095482;28;20201;-71
2021/04/08 10:55:19;;;;;;;6.43;1.17;;;;;;;6.35;44.29;101207.91;5097155;28;20209;-72
2021/04/08 10:57:44;;;;;;;2.07;0.80;;;;;;;5.73;45.08;101214.03;5094538;28;20186;-72
2021/04/08 11:00:11;;;;;;;4.17;1.30;;;;;;;6.30;45.58;101223.94;5095723;28;20204;-71
2021/04/08 11:02:39;;;;;;;6.10;1.80;;;;;;;7.67;42.30;101232.84;5098290;28;20176;-71
2021/04/08 11:05:08;;;;;;;6.07;1.23;;;;;;;9.55;38.39;101217.63;5103607;28;20263;-72
2021/04/08 11:07:38;;;;;;;3.07;1.20;;;;;;;9.13;38.40;101218.47;5106503;28;20294;-71
2021/04/08 11:10:23;;;;;;;8.57;1.43;;;;;;;7.75;41.10;101225.47;5099262;28;20199;-71
2021/04/08 11:12:50;;;;;;;5.10;1.20;;;;;;;6.89;42.65;101246.03;5096207;28;20198;-72
2021/04/08 11:15:16;;;;;;;3.10;1.10;;;;;;;6.47;43.50;101226.97;5095858;28;20512;-73
2021/04/08 11:17:44;;;;;;;5.97;1.10;;;;;;;6.06;42.87;101224.66;5096248;28;20589;-72
2021/04/08 11:20:12;;;;;;;2.10;0.83;;;;;;;5.90;41.52;101256.84;5095650;28;20194;-72
2021/04/08 11:22:42;;;;;;;4.57;1.10;;;;;;;5.85;41.52;101244.59;5096016;28;20213;-72
2021/04/08 11:25:09;;;;;;;3.83;0.90;;;;;;;5.91;42.01;101234.75;5095172;28;20626;-72
2021/04/08 11:27:38;;;;;;;4.10;1.17;;;;;;;5.93;43.26;101240.88;5095997;28;20214;-72
2021/04/08 11:30:08;;;;;;;8.17;1.60;;;;;;;5.77;44.56;101262.50;5094142;28;20562;-72